sensor_id;sensor_type;location;lat;lon;timestamp;temperature;humidity
13115;DHT22;6623;52.120;8.660;2024-02-21T00:01:47;20.50;47.00
13115;DHT22;6623;52.120;8.660;2024-02-21T00:04:13;20.50;47.00
13115;DHT22;6623;52.120;8.660;2024-02-21T00:06:38;20.50;47.00
13115;DHT22;6623;52.120;8.660;2024-02-21T00:09:04;20.50;47.00
13115;DHT22;6623;52.120;8.660;2024-02-21T00:11:29;20.50;47.00
13115;DHT22;6623;52.120;8.660;2024-02-21T00:13:55;20.50;47.00
13115;DHT22;6623;52.120;8.660;2024-02-21T00:16:20;20.50;47.00
13115;DHT22;6623;52.120;8.660;2024-02-21T00:18:46;20.50;47.00
13115;DHT22;6623;52.120;8.660;2024-02-21T00:21:11;20.50;47.00
13115;DHT22;6623;52.120;8.660;2024-02-21T00:23:46;20.50;47.00
13115;DHT22;6623;52.120;8.660;2024-02-21T00:26:12;20.50;47.00
13115;DHT22;6623;52.120;8.660;2024-02-21T00:28:39;20.50;47.00
13115;DHT22;6623;52.120;8.660;2024-02-21T00:31:04;20.50;47.00
13115;DHT22;6623;52.120;8.660;2024-02-21T00:33:30;20.50;47.00
13115;DHT22;6623;52.120;8.660;2024-02-21T00:35:56;20.50;47.00
13115;DHT22;6623;52.120;8.660;2024-02-21T00:38:21;20.50;47.00
13115;DHT22;6623;52.120;8.660;2024-02-21T00:40:46;20.50;47.00
13115;DHT22;6623;52.120;8.660;2024-02-21T00:43:12;20.50;47.00
13115;DHT22;6623;52.120;8.660;2024-02-21T00:45:38;20.50;47.00
13115;DHT22;6623;52.120;8.660;2024-02-21T00:48:04;20.50;47.00
13115;DHT22;6623;52.120;8.660;2024-02-21T00:50:29;20.50;47.00
13115;DHT22;6623;52.120;8.660;2024-02-21T00:52:55;20.50;47.00
13115;DHT22;6623;52.120;8.660;2024-02-21T00:55:20;20.50;47.00
13115;DHT22;6623;52.120;8.660;2024-02-21T00:57:46;20.50;47.00
13115;DHT22;6623;52.120;8.660;2024-02-21T01:00:12;20.50;46.90
13115;DHT22;6623;52.120;8.660;2024-02-21T01:02:38;20.50;47.00
13115;DHT22;6623;52.120;8.660;2024-02-21T01:05:03;20.50;47.00
13115;DHT22;6623;52.120;8.660;2024-02-21T01:07:29;20.50;47.00
13115;DHT22;6623;52.120;8.660;2024-02-21T01:09:54;20.50;47.00
13115;DHT22;6623;52.120;8.660;2024-02-21T01:12:20;20.50;47.10
13115;DHT22;6623;52.120;8.660;2024-02-21T01:14:45;20.50;47.00
13115;DHT22;6623;52.120;8.660;2024-02-21T01:17:12;20.50;46.90
13115;DHT22;6623;52.120;8.660;2024-02-21T01:19:37;20.50;47.00
13115;DHT22;6623;52.120;8.660;2024-02-21T01:22:03;20.50;46.90
13115;DHT22;6623;52.120;8.660;2024-02-21T01:24:29;20.50;47.00
13115;DHT22;6623;52.120;8.660;2024-02-21T01:26:55;20.50;47.00
13115;DHT22;6623;52.120;8.660;2024-02-21T01:29:20;20.50;47.00
13115;DHT22;6623;52.120;8.660;2024-02-21T01:31:46;20.50;47.00
13115;DHT22;6623;52.120;8.660;2024-02-21T01:34:12;20.50;46.90
13115;DHT22;6623;52.120;8.660;2024-02-21T01:36:38;20.50;47.00
13115;DHT22;6623;52.120;8.660;2024-02-21T01:39:03;20.50;47.00
13115;DHT22;6623;52.120;8.660;2024-02-21T01:41:32;20.50;47.00
13115;DHT22;6623;52.120;8.660;2024-02-21T01:43:58;20.50;47.00
13115;DHT22;6623;52.120;8.660;2024-02-21T01:46:24;20.50;46.90
13115;DHT22;6623;52.120;8.660;2024-02-21T01:48:55;20.50;47.00
13115;DHT22;6623;52.120;8.660;2024-02-21T01:51:21;20.50;47.00
13115;DHT22;6623;52.120;8.660;2024-02-21T01:53:46;20.50;46.90
13115;DHT22;6623;52.120;8.660;2024-02-21T01:56:13;20.50;46.90
13115;DHT22;6623;52.120;8.660;2024-02-21T01:58:40;20.50;46.90
13115;DHT22;6623;52.120;8.660;2024-02-21T02:01:06;20.50;46.90
13115;DHT22;6623;52.120;8.660;2024-02-21T02:03:32;20.50;46.90
13115;DHT22;6623;52.120;8.660;2024-02-21T02:05:57;20.50;46.90
13115;DHT22;6623;52.120;8.660;2024-02-21T02:08:23;20.50;46.90
13115;DHT22;6623;52.120;8.660;2024-02-21T02:10:48;20.50;47.00
13115;DHT22;6623;52.120;8.660;2024-02-21T02:13:14;20.50;46.90
13115;DHT22;6623;52.120;8.660;2024-02-21T02:15:46;20.50;46.90
13115;DHT22;6623;52.120;8.660;2024-02-21T02:18:13;20.50;47.00
13115;DHT22;6623;52.120;8.660;2024-02-21T02:20:38;20.50;46.90
13115;DHT22;6623;52.120;8.660;2024-02-21T02:23:27;20.50;46.90
13115;DHT22;6623;52.120;8.660;2024-02-21T02:25:53;20.50;46.90
13115;DHT22;6623;52.120;8.660;2024-02-21T02:28:19;20.50;46.90
13115;DHT22;6623;52.120;8.660;2024-02-21T02:30:45;20.50;46.90
13115;DHT22;6623;52.120;8.660;2024-02-21T02:33:11;20.50;46.90
13115;DHT22;6623;52.120;8.660;2024-02-21T02:35:36;20.50;46.90
13115;DHT22;6623;52.120;8.660;2024-02-21T02:38:05;20.50;47.50
13115;DHT22;6623;52.120;8.660;2024-02-21T02:40:34;20.50;46.90
13115;DHT22;6623;52.120;8.660;2024-02-21T02:43:00;20.50;46.90
13115;DHT22;6623;52.120;8.660;2024-02-21T02:45:25;20.50;46.90
13115;DHT22;6623;52.120;8.660;2024-02-21T02:47:54;20.50;46.90
13115;DHT22;6623;52.120;8.660;2024-02-21T02:50:20;20.50;46.90
13115;DHT22;6623;52.120;8.660;2024-02-21T02:52:46;20.50;46.90
13115;DHT22;6623;52.120;8.660;2024-02-21T02:55:11;20.50;46.90
13115;DHT22;6623;52.120;8.660;2024-02-21T02:57:37;20.50;46.90
13115;DHT22;6623;52.120;8.660;2024-02-21T03:00:03;20.50;46.80
13115;DHT22;6623;52.120;8.660;2024-02-21T03:02:29;20.50;46.80
13115;DHT22;6623;52.120;8.660;2024-02-21T03:04:56;20.50;46.80
13115;DHT22;6623;52.120;8.660;2024-02-21T03:07:21;20.50;46.80
13115;DHT22;6623;52.120;8.660;2024-02-21T03:09:47;20.50;46.90
13115;DHT22;6623;52.120;8.660;2024-02-21T03:12:12;20.50;46.90
13115;DHT22;6623;52.120;8.660;2024-02-21T03:14:44;20.50;46.80
13115;DHT22;6623;52.120;8.660;2024-02-21T03:17:09;20.50;46.80
13115;DHT22;6623;52.120;8.660;2024-02-21T03:19:35;20.50;46.90
13115;DHT22;6623;52.120;8.660;2024-02-21T03:22:00;20.50;46.90
13115;DHT22;6623;52.120;8.660;2024-02-21T03:24:26;20.50;46.90
13115;DHT22;6623;52.120;8.660;2024-02-21T03:26:51;20.50;46.90
13115;DHT22;6623;52.120;8.660;2024-02-21T03:29:17;20.50;46.80
13115;DHT22;6623;52.120;8.660;2024-02-21T03:31:43;20.50;46.80
13115;DHT22;6623;52.120;8.660;2024-02-21T03:34:11;20.50;46.80
13115;DHT22;6623;52.120;8.660;2024-02-21T03:36:37;20.50;46.90
13115;DHT22;6623;52.120;8.660;2024-02-21T03:39:02;20.50;46.80
13115;DHT22;6623;52.120;8.660;2024-02-21T03:41:28;20.50;46.80
13115;DHT22;6623;52.120;8.660;2024-02-21T03:43:54;20.50;46.90
13115;DHT22;6623;52.120;8.660;2024-02-21T03:46:20;20.50;46.80
13115;DHT22;6623;52.120;8.660;2024-02-21T03:48:45;20.50;46.80
13115;DHT22;6623;52.120;8.660;2024-02-21T03:51:11;20.50;46.80
13115;DHT22;6623;52.120;8.660;2024-02-21T03:53:37;20.50;46.80
13115;DHT22;6623;52.120;8.660;2024-02-21T03:56:03;20.50;46.80
13115;DHT22;6623;52.120;8.660;2024-02-21T03:58:30;20.50;46.90
13115;DHT22;6623;52.120;8.660;2024-02-21T04:00:55;20.50;46.80
13115;DHT22;6623;52.120;8.660;2024-02-21T04:03:21;20.50;47.50
13115;DHT22;6623;52.120;8.660;2024-02-21T04:05:46;20.50;46.80
13115;DHT22;6623;52.120;8.660;2024-02-21T04:08:12;20.50;46.80
13115;DHT22;6623;52.120;8.660;2024-02-21T04:10:37;20.50;46.80
13115;DHT22;6623;52.120;8.660;2024-02-21T04:13:05;20.50;46.80
13115;DHT22;6623;52.120;8.660;2024-02-21T04:15:31;20.50;46.80
13115;DHT22;6623;52.120;8.660;2024-02-21T04:17:56;20.50;46.90
13115;DHT22;6623;52.120;8.660;2024-02-21T04:20:22;20.50;46.80
13115;DHT22;6623;52.120;8.660;2024-02-21T04:22:48;20.50;46.80
13115;DHT22;6623;52.120;8.660;2024-02-21T04:25:14;20.50;46.80
13115;DHT22;6623;52.120;8.660;2024-02-21T04:27:39;20.50;46.90
13115;DHT22;6623;52.120;8.660;2024-02-21T04:30:05;20.50;46.80
13115;DHT22;6623;52.120;8.660;2024-02-21T04:32:31;20.50;46.80
13115;DHT22;6623;52.120;8.660;2024-02-21T04:34:57;20.50;46.80
13115;DHT22;6623;52.120;8.660;2024-02-21T04:37:22;20.50;46.80
13115;DHT22;6623;52.120;8.660;2024-02-21T04:39:49;20.50;46.80
13115;DHT22;6623;52.120;8.660;2024-02-21T04:42:15;20.50;46.80
13115;DHT22;6623;52.120;8.660;2024-02-21T04:44:40;20.50;46.80
13115;DHT22;6623;52.120;8.660;2024-02-21T04:47:07;20.50;46.80
13115;DHT22;6623;52.120;8.660;2024-02-21T04:49:33;20.50;46.80
13115;DHT22;6623;52.120;8.660;2024-02-21T04:51:58;20.50;46.80
13115;DHT22;6623;52.120;8.660;2024-02-21T04:54:24;20.50;46.80
13115;DHT22;6623;52.120;8.660;2024-02-21T04:56:50;20.50;46.80
13115;DHT22;6623;52.120;8.660;2024-02-21T04:59:16;20.50;46.80
13115;DHT22;6623;52.120;8.660;2024-02-21T05:01:41;20.50;46.80
13115;DHT22;6623;52.120;8.660;2024-02-21T05:04:07;20.50;46.80
13115;DHT22;6623;52.120;8.660;2024-02-21T05:06:37;20.50;46.80
13115;DHT22;6623;52.120;8.660;2024-02-21T05:09:04;20.40;46.80
13115;DHT22;6623;52.120;8.660;2024-02-21T05:11:30;20.50;46.80
13115;DHT22;6623;52.120;8.660;2024-02-21T05:13:55;20.40;46.80
13115;DHT22;6623;52.120;8.660;2024-02-21T05:16:21;20.40;46.70
13115;DHT22;6623;52.120;8.660;2024-02-21T05:18:46;20.50;46.80
13115;DHT22;6623;52.120;8.660;2024-02-21T05:21:12;20.50;46.80
13115;DHT22;6623;52.120;8.660;2024-02-21T05:23:38;20.50;46.80
13115;DHT22;6623;52.120;8.660;2024-02-21T05:26:05;20.40;46.80
13115;DHT22;6623;52.120;8.660;2024-02-21T05:28:30;20.50;46.80
13115;DHT22;6623;52.120;8.660;2024-02-21T05:30:56;20.50;46.80
13115;DHT22;6623;52.120;8.660;2024-02-21T05:33:21;20.40;46.70
13115;DHT22;6623;52.120;8.660;2024-02-21T05:35:47;20.50;46.80
13115;DHT22;6623;52.120;8.660;2024-02-21T05:38:16;20.40;46.80
13115;DHT22;6623;52.120;8.660;2024-02-21T05:40:41;20.50;46.80
13115;DHT22;6623;52.120;8.660;2024-02-21T05:43:08;20.50;46.80
13115;DHT22;6623;52.120;8.660;2024-02-21T05:45:34;20.40;46.70
13115;DHT22;6623;52.120;8.660;2024-02-21T05:47:59;20.40;46.80
13115;DHT22;6623;52.120;8.660;2024-02-21T05:50:25;20.40;46.70
13115;DHT22;6623;52.120;8.660;2024-02-21T05:52:53;20.40;46.80
13115;DHT22;6623;52.120;8.660;2024-02-21T05:55:19;20.50;46.80
13115;DHT22;6623;52.120;8.660;2024-02-21T05:57:44;20.40;46.70
13115;DHT22;6623;52.120;8.660;2024-02-21T06:00:10;20.40;46.70
13115;DHT22;6623;52.120;8.660;2024-02-21T06:02:35;20.40;46.70
13115;DHT22;6623;52.120;8.660;2024-02-21T06:05:01;20.40;46.80
13115;DHT22;6623;52.120;8.660;2024-02-21T06:07:26;20.40;46.70
13115;DHT22;6623;52.120;8.660;2024-02-21T06:09:52;20.40;46.70
13115;DHT22;6623;52.120;8.660;2024-02-21T06:12:18;20.40;46.70
13115;DHT22;6623;52.120;8.660;2024-02-21T06:14:43;20.40;46.80
13115;DHT22;6623;52.120;8.660;2024-02-21T06:17:09;20.40;46.70
13115;DHT22;6623;52.120;8.660;2024-02-21T06:19:34;20.40;46.70
13115;DHT22;6623;52.120;8.660;2024-02-21T06:22:00;20.40;47.40
13115;DHT22;6623;52.120;8.660;2024-02-21T06:24:25;20.40;46.70
13115;DHT22;6623;52.120;8.660;2024-02-21T06:26:50;20.40;46.80
13115;DHT22;6623;52.120;8.660;2024-02-21T06:29:16;20.40;46.70
13115;DHT22;6623;52.120;8.660;2024-02-21T06:31:41;20.40;46.70
13115;DHT22;6623;52.120;8.660;2024-02-21T06:34:07;20.40;46.70
13115;DHT22;6623;52.120;8.660;2024-02-21T06:36:33;20.40;46.70
13115;DHT22;6623;52.120;8.660;2024-02-21T06:38:59;20.40;46.70
13115;DHT22;6623;52.120;8.660;2024-02-21T06:41:24;20.40;46.70
13115;DHT22;6623;52.120;8.660;2024-02-21T06:43:50;20.40;46.70
13115;DHT22;6623;52.120;8.660;2024-02-21T06:46:29;20.40;46.80
13115;DHT22;6623;52.120;8.660;2024-02-21T06:48:55;20.40;46.70
13115;DHT22;6623;52.120;8.660;2024-02-21T06:51:24;20.40;46.70
13115;DHT22;6623;52.120;8.660;2024-02-21T06:53:50;20.40;46.70
13115;DHT22;6623;52.120;8.660;2024-02-21T06:56:15;20.50;46.80
13115;DHT22;6623;52.120;8.660;2024-02-21T06:58:41;20.40;46.70
13115;DHT22;6623;52.120;8.660;2024-02-21T07:01:07;20.40;46.70
13115;DHT22;6623;52.120;8.660;2024-02-21T07:03:32;20.40;46.70
13115;DHT22;6623;52.120;8.660;2024-02-21T07:05:58;20.40;46.70
13115;DHT22;6623;52.120;8.660;2024-02-21T07:08:23;20.40;46.70
13115;DHT22;6623;52.120;8.660;2024-02-21T07:10:49;20.40;46.70
13115;DHT22;6623;52.120;8.660;2024-02-21T07:13:14;20.40;46.70
13115;DHT22;6623;52.120;8.660;2024-02-21T07:15:41;20.40;46.70
13115;DHT22;6623;52.120;8.660;2024-02-21T07:18:06;20.40;47.30
13115;DHT22;6623;52.120;8.660;2024-02-21T07:20:32;20.40;46.70
13115;DHT22;6623;52.120;8.660;2024-02-21T07:22:59;20.40;46.70
13115;DHT22;6623;52.120;8.660;2024-02-21T07:25:25;20.40;46.70
13115;DHT22;6623;52.120;8.660;2024-02-21T07:27:51;20.40;46.70
13115;DHT22;6623;52.120;8.660;2024-02-21T07:30:17;20.40;46.70
13115;DHT22;6623;52.120;8.660;2024-02-21T07:32:42;20.40;46.70
13115;DHT22;6623;52.120;8.660;2024-02-21T07:35:08;20.40;46.80
13115;DHT22;6623;52.120;8.660;2024-02-21T07:37:36;20.40;46.70
13115;DHT22;6623;52.120;8.660;2024-02-21T07:40:04;20.40;46.70
13115;DHT22;6623;52.120;8.660;2024-02-21T07:42:29;20.40;46.70
13115;DHT22;6623;52.120;8.660;2024-02-21T07:44:55;20.40;46.70
13115;DHT22;6623;52.120;8.660;2024-02-21T07:47:22;20.40;47.30
13115;DHT22;6623;52.120;8.660;2024-02-21T07:49:47;20.40;46.70
13115;DHT22;6623;52.120;8.660;2024-02-21T07:52:14;20.40;46.70
13115;DHT22;6623;52.120;8.660;2024-02-21T07:54:40;20.40;46.70
13115;DHT22;6623;52.120;8.660;2024-02-21T07:57:07;20.40;46.70
13115;DHT22;6623;52.120;8.660;2024-02-21T07:59:32;20.40;46.70
13115;DHT22;6623;52.120;8.660;2024-02-21T08:01:58;20.40;46.70
13115;DHT22;6623;52.120;8.660;2024-02-21T08:04:24;20.40;46.70
13115;DHT22;6623;52.120;8.660;2024-02-21T08:06:53;20.40;46.70
13115;DHT22;6623;52.120;8.660;2024-02-21T08:09:21;20.40;46.70
13115;DHT22;6623;52.120;8.660;2024-02-21T08:11:47;20.40;46.70
13115;DHT22;6623;52.120;8.660;2024-02-21T08:14:12;20.40;46.70
13115;DHT22;6623;52.120;8.660;2024-02-21T08:16:40;20.40;46.70
13115;DHT22;6623;52.120;8.660;2024-02-21T08:19:06;20.40;46.70
13115;DHT22;6623;52.120;8.660;2024-02-21T08:21:31;20.40;46.70
13115;DHT22;6623;52.120;8.660;2024-02-21T08:23:57;20.40;46.70
13115;DHT22;6623;52.120;8.660;2024-02-21T08:26:22;20.40;46.70
13115;DHT22;6623;52.120;8.660;2024-02-21T08:28:47;20.40;46.70
13115;DHT22;6623;52.120;8.660;2024-02-21T08:31:19;20.40;46.70
13115;DHT22;6623;52.120;8.660;2024-02-21T08:33:45;20.40;46.70
13115;DHT22;6623;52.120;8.660;2024-02-21T08:36:20;20.40;46.70
13115;DHT22;6623;52.120;8.660;2024-02-21T08:38:46;20.40;46.70
13115;DHT22;6623;52.120;8.660;2024-02-21T08:41:11;20.40;46.70
13115;DHT22;6623;52.120;8.660;2024-02-21T08:43:37;20.40;46.70
13115;DHT22;6623;52.120;8.660;2024-02-21T08:46:04;20.40;46.70
13115;DHT22;6623;52.120;8.660;2024-02-21T08:48:29;20.40;46.70
13115;DHT22;6623;52.120;8.660;2024-02-21T08:50:55;20.40;46.70
13115;DHT22;6623;52.120;8.660;2024-02-21T08:53:20;20.40;46.70
13115;DHT22;6623;52.120;8.660;2024-02-21T08:55:46;20.40;46.70
13115;DHT22;6623;52.120;8.660;2024-02-21T08:58:11;20.40;46.70
13115;DHT22;6623;52.120;8.660;2024-02-21T09:00:37;20.40;47.30
13115;DHT22;6623;52.120;8.660;2024-02-21T09:03:03;20.40;46.70
13115;DHT22;6623;52.120;8.660;2024-02-21T09:05:28;20.40;46.70
13115;DHT22;6623;52.120;8.660;2024-02-21T09:07:54;20.40;46.70
13115;DHT22;6623;52.120;8.660;2024-02-21T09:10:20;20.40;46.70
13115;DHT22;6623;52.120;8.660;2024-02-21T09:12:46;20.40;46.70
13115;DHT22;6623;52.120;8.660;2024-02-21T09:15:12;20.40;46.60
13115;DHT22;6623;52.120;8.660;2024-02-21T09:17:38;20.40;46.70
13115;DHT22;6623;52.120;8.660;2024-02-21T09:20:05;20.40;46.60
13115;DHT22;6623;52.120;8.660;2024-02-21T09:22:31;20.40;46.70
13115;DHT22;6623;52.120;8.660;2024-02-21T09:25:00;20.40;46.70
13115;DHT22;6623;52.120;8.660;2024-02-21T09:27:25;20.40;46.60
13115;DHT22;6623;52.120;8.660;2024-02-21T09:29:51;20.40;46.60
13115;DHT22;6623;52.120;8.660;2024-02-21T09:32:16;20.40;46.60
13115;DHT22;6623;52.120;8.660;2024-02-21T09:34:42;20.40;46.60
13115;DHT22;6623;52.120;8.660;2024-02-21T09:37:07;20.30;46.60
13115;DHT22;6623;52.120;8.660;2024-02-21T09:39:33;20.40;46.60
13115;DHT22;6623;52.120;8.660;2024-02-21T09:42:02;20.40;46.60
13115;DHT22;6623;52.120;8.660;2024-02-21T09:44:36;20.40;46.60
13115;DHT22;6623;52.120;8.660;2024-02-21T09:47:03;20.40;46.60
13115;DHT22;6623;52.120;8.660;2024-02-21T09:49:32;20.40;46.60
13115;DHT22;6623;52.120;8.660;2024-02-21T09:52:00;20.30;46.60
13115;DHT22;6623;52.120;8.660;2024-02-21T09:54:28;20.30;46.60
13115;DHT22;6623;52.120;8.660;2024-02-21T09:56:54;20.40;46.60
13115;DHT22;6623;52.120;8.660;2024-02-21T09:59:20;20.30;46.60
13115;DHT22;6623;52.120;8.660;2024-02-21T10:01:45;20.30;46.60
13115;DHT22;6623;52.120;8.660;2024-02-21T10:04:13;20.40;46.60
13115;DHT22;6623;52.120;8.660;2024-02-21T10:06:39;20.30;46.50
13115;DHT22;6623;52.120;8.660;2024-02-21T10:09:07;20.30;46.50
13115;DHT22;6623;52.120;8.660;2024-02-21T10:11:33;20.40;46.60
13115;DHT22;6623;52.120;8.660;2024-02-21T10:14:08;20.30;46.50
13115;DHT22;6623;52.120;8.660;2024-02-21T10:16:33;20.30;46.60
13115;DHT22;6623;52.120;8.660;2024-02-21T10:18:59;20.30;46.60
13115;DHT22;6623;52.120;8.660;2024-02-21T10:21:25;20.30;46.60
13115;DHT22;6623;52.120;8.660;2024-02-21T10:23:51;20.30;46.60
13115;DHT22;6623;52.120;8.660;2024-02-21T10:26:20;20.30;46.50
13115;DHT22;6623;52.120;8.660;2024-02-21T10:28:47;20.30;46.50
13115;DHT22;6623;52.120;8.660;2024-02-21T10:31:27;20.40;46.60
13115;DHT22;6623;52.120;8.660;2024-02-21T10:34:02;20.30;46.60
13115;DHT22;6623;52.120;8.660;2024-02-21T10:36:31;20.30;46.50
13115;DHT22;6623;52.120;8.660;2024-02-21T10:38:56;20.30;46.60
13115;DHT22;6623;52.120;8.660;2024-02-21T10:41:23;20.30;46.50
13115;DHT22;6623;52.120;8.660;2024-02-21T10:43:54;20.30;46.50
13115;DHT22;6623;52.120;8.660;2024-02-21T10:46:21;20.30;46.50
13115;DHT22;6623;52.120;8.660;2024-02-21T10:48:48;20.40;46.60
13115;DHT22;6623;52.120;8.660;2024-02-21T10:51:19;20.30;46.50
13115;DHT22;6623;52.120;8.660;2024-02-21T10:56:50;20.30;46.50
13115;DHT22;6623;52.120;8.660;2024-02-21T10:59:17;20.30;46.50
13115;DHT22;6623;52.120;8.660;2024-02-21T11:01:43;20.30;46.50
13115;DHT22;6623;52.120;8.660;2024-02-21T11:04:10;20.30;46.50
13115;DHT22;6623;52.120;8.660;2024-02-21T11:06:40;20.40;46.60
13115;DHT22;6623;52.120;8.660;2024-02-21T11:09:08;20.40;46.60
13115;DHT22;6623;52.120;8.660;2024-02-21T11:14:10;20.30;46.50
13115;DHT22;6623;52.120;8.660;2024-02-21T11:16:38;20.30;46.50
13115;DHT22;6623;52.120;8.660;2024-02-21T11:19:18;20.40;46.60
13115;DHT22;6623;52.120;8.660;2024-02-21T11:21:43;20.30;46.50
13115;DHT22;6623;52.120;8.660;2024-02-21T11:24:09;20.30;46.50
13115;DHT22;6623;52.120;8.660;2024-02-21T11:26:37;20.40;46.60
13115;DHT22;6623;52.120;8.660;2024-02-21T11:29:03;20.30;46.50
13115;DHT22;6623;52.120;8.660;2024-02-21T11:31:44;20.30;46.50
13115;DHT22;6623;52.120;8.660;2024-02-21T11:34:11;20.30;46.50
13115;DHT22;6623;52.120;8.660;2024-02-21T11:36:53;20.40;46.60
13115;DHT22;6623;52.120;8.660;2024-02-21T11:39:25;20.40;46.50
13115;DHT22;6623;52.120;8.660;2024-02-21T11:42:03;20.30;46.50
13115;DHT22;6623;52.120;8.660;2024-02-21T11:44:30;20.40;46.50
13115;DHT22;6623;52.120;8.660;2024-02-21T11:46:56;20.30;46.50
13115;DHT22;6623;52.120;8.660;2024-02-21T11:49:24;20.40;46.60
13115;DHT22;6623;52.120;8.660;2024-02-21T11:52:00;20.30;46.50
13115;DHT22;6623;52.120;8.660;2024-02-21T11:54:27;20.30;46.50
13115;DHT22;6623;52.120;8.660;2024-02-21T11:56:53;20.30;46.50
13115;DHT22;6623;52.120;8.660;2024-02-21T11:59:18;20.30;46.50
13115;DHT22;6623;52.120;8.660;2024-02-21T12:01:44;20.40;46.50
13115;DHT22;6623;52.120;8.660;2024-02-21T12:04:10;20.30;46.50
13115;DHT22;6623;52.120;8.660;2024-02-21T12:06:36;20.30;46.50
13115;DHT22;6623;52.120;8.660;2024-02-21T12:09:01;20.30;46.50
13115;DHT22;6623;52.120;8.660;2024-02-21T12:11:27;20.30;46.50
13115;DHT22;6623;52.120;8.660;2024-02-21T12:14:02;20.40;46.50
13115;DHT22;6623;52.120;8.660;2024-02-21T12:16:32;20.40;46.50
13115;DHT22;6623;52.120;8.660;2024-02-21T12:18:59;20.40;46.50
13115;DHT22;6623;52.120;8.660;2024-02-21T12:21:35;20.40;46.50
13115;DHT22;6623;52.120;8.660;2024-02-21T12:24:14;20.40;46.50
13115;DHT22;6623;52.120;8.660;2024-02-21T12:26:40;20.40;46.50
13115;DHT22;6623;52.120;8.660;2024-02-21T12:29:06;20.40;46.50
13115;DHT22;6623;52.120;8.660;2024-02-21T12:31:31;20.30;46.50
13115;DHT22;6623;52.120;8.660;2024-02-21T12:33:57;20.40;46.50
13115;DHT22;6623;52.120;8.660;2024-02-21T12:36:22;20.40;46.50
13115;DHT22;6623;52.120;8.660;2024-02-21T12:38:48;20.30;46.50
13115;DHT22;6623;52.120;8.660;2024-02-21T12:41:14;20.40;46.50
13115;DHT22;6623;52.120;8.660;2024-02-21T12:43:40;20.40;46.80
13115;DHT22;6623;52.120;8.660;2024-02-21T12:46:06;20.40;46.50
13115;DHT22;6623;52.120;8.660;2024-02-21T12:48:33;20.40;46.50
13115;DHT22;6623;52.120;8.660;2024-02-21T12:50:59;20.40;46.50
13115;DHT22;6623;52.120;8.660;2024-02-21T12:53:24;20.30;46.40
13115;DHT22;6623;52.120;8.660;2024-02-21T12:55:50;20.30;46.40
13115;DHT22;6623;52.120;8.660;2024-02-21T12:58:16;20.40;46.50
13115;DHT22;6623;52.120;8.660;2024-02-21T13:00:42;20.40;46.80
13115;DHT22;6623;52.120;8.660;2024-02-21T13:03:08;20.40;46.50
13115;DHT22;6623;52.120;8.660;2024-02-21T13:05:38;20.30;46.50
13115;DHT22;6623;52.120;8.660;2024-02-21T13:08:07;20.40;46.50
13115;DHT22;6623;52.120;8.660;2024-02-21T13:10:33;20.30;46.40
13115;DHT22;6623;52.120;8.660;2024-02-21T13:13:01;20.30;46.40
13115;DHT22;6623;52.120;8.660;2024-02-21T13:15:27;20.30;46.40
13115;DHT22;6623;52.120;8.660;2024-02-21T13:17:54;20.30;46.50
13115;DHT22;6623;52.120;8.660;2024-02-21T13:20:20;20.30;46.50
13115;DHT22;6623;52.120;8.660;2024-02-21T13:22:46;20.40;46.50
13115;DHT22;6623;52.120;8.660;2024-02-21T13:25:12;20.30;46.50
13115;DHT22;6623;52.120;8.660;2024-02-21T13:27:40;20.30;46.40
13115;DHT22;6623;52.120;8.660;2024-02-21T13:30:06;20.40;46.50
13115;DHT22;6623;52.120;8.660;2024-02-21T13:32:34;20.30;46.40
13115;DHT22;6623;52.120;8.660;2024-02-21T13:34:59;20.40;46.50
13115;DHT22;6623;52.120;8.660;2024-02-21T13:37:27;20.30;46.40
13115;DHT22;6623;52.120;8.660;2024-02-21T13:39:53;20.40;46.50
13115;DHT22;6623;52.120;8.660;2024-02-21T13:42:19;20.40;46.50
13115;DHT22;6623;52.120;8.660;2024-02-21T13:44:45;20.30;46.40
13115;DHT22;6623;52.120;8.660;2024-02-21T13:47:14;20.30;46.40
13115;DHT22;6623;52.120;8.660;2024-02-21T13:49:40;20.30;46.40
13115;DHT22;6623;52.120;8.660;2024-02-21T13:52:06;20.30;46.40
13115;DHT22;6623;52.120;8.660;2024-02-21T13:54:31;20.40;46.50
13115;DHT22;6623;52.120;8.660;2024-02-21T13:56:57;20.30;46.40
13115;DHT22;6623;52.120;8.660;2024-02-21T13:59:22;20.40;46.50
13115;DHT22;6623;52.120;8.660;2024-02-21T14:01:48;20.40;47.10
13115;DHT22;6623;52.120;8.660;2024-02-21T14:04:14;20.40;46.50
13115;DHT22;6623;52.120;8.660;2024-02-21T14:06:39;20.30;46.40
13115;DHT22;6623;52.120;8.660;2024-02-21T14:09:12;20.30;46.40
13115;DHT22;6623;52.120;8.660;2024-02-21T14:11:37;20.30;46.40
13115;DHT22;6623;52.120;8.660;2024-02-21T14:14:04;20.40;46.50
13115;DHT22;6623;52.120;8.660;2024-02-21T14:16:30;20.30;46.40
13115;DHT22;6623;52.120;8.660;2024-02-21T14:18:55;20.30;46.40
13115;DHT22;6623;52.120;8.660;2024-02-21T14:21:21;20.30;46.40
13115;DHT22;6623;52.120;8.660;2024-02-21T14:23:46;20.40;46.50
13115;DHT22;6623;52.120;8.660;2024-02-21T14:26:12;20.40;46.50
13115;DHT22;6623;52.120;8.660;2024-02-21T14:28:37;20.30;46.40
13115;DHT22;6623;52.120;8.660;2024-02-21T14:31:04;20.30;46.40
13115;DHT22;6623;52.120;8.660;2024-02-21T14:33:31;20.30;46.40
13115;DHT22;6623;52.120;8.660;2024-02-21T14:35:56;20.30;46.40
13115;DHT22;6623;52.120;8.660;2024-02-21T14:38:22;20.30;46.40
13115;DHT22;6623;52.120;8.660;2024-02-21T14:40:48;20.30;46.40
13115;DHT22;6623;52.120;8.660;2024-02-21T14:43:14;20.30;46.40
13115;DHT22;6623;52.120;8.660;2024-02-21T14:45:39;20.30;46.40
13115;DHT22;6623;52.120;8.660;2024-02-21T14:48:05;20.30;46.40
13115;DHT22;6623;52.120;8.660;2024-02-21T14:50:33;20.30;46.50
13115;DHT22;6623;52.120;8.660;2024-02-21T14:52:59;20.30;46.40
13115;DHT22;6623;52.120;8.660;2024-02-21T14:55:24;20.30;46.50
13115;DHT22;6623;52.120;8.660;2024-02-21T14:57:50;20.30;46.40
13115;DHT22;6623;52.120;8.660;2024-02-21T15:00:16;20.30;46.40
13115;DHT22;6623;52.120;8.660;2024-02-21T15:02:42;20.30;46.40
13115;DHT22;6623;52.120;8.660;2024-02-21T15:05:08;20.30;46.40
13115;DHT22;6623;52.120;8.660;2024-02-21T15:07:34;20.30;46.40
13115;DHT22;6623;52.120;8.660;2024-02-21T15:10:00;20.30;46.40
13115;DHT22;6623;52.120;8.660;2024-02-21T15:12:26;20.30;46.40
13115;DHT22;6623;52.120;8.660;2024-02-21T15:14:51;20.30;46.40
13115;DHT22;6623;52.120;8.660;2024-02-21T15:17:17;20.30;46.40
13115;DHT22;6623;52.120;8.660;2024-02-21T15:19:44;20.30;46.40
13115;DHT22;6623;52.120;8.660;2024-02-21T15:22:12;20.30;46.40
13115;DHT22;6623;52.120;8.660;2024-02-21T15:24:40;20.40;46.50
13115;DHT22;6623;52.120;8.660;2024-02-21T15:27:07;20.30;46.40
13115;DHT22;6623;52.120;8.660;2024-02-21T15:29:34;20.30;46.40
13115;DHT22;6623;52.120;8.660;2024-02-21T15:32:01;20.30;46.40
13115;DHT22;6623;52.120;8.660;2024-02-21T15:34:27;20.30;46.40
13115;DHT22;6623;52.120;8.660;2024-02-21T15:36:53;20.40;46.50
13115;DHT22;6623;52.120;8.660;2024-02-21T15:39:18;20.30;46.40
13115;DHT22;6623;52.120;8.660;2024-02-21T15:41:44;20.30;46.40
13115;DHT22;6623;52.120;8.660;2024-02-21T15:44:09;20.30;46.40
13115;DHT22;6623;52.120;8.660;2024-02-21T15:46:35;20.30;46.40